Time;durP1;ratioP1;P1;durP2;ratioP2;P2;SDS_P1;SDS_P2;PMS_P1;PMS_P2;Temp;Humidity;BMP_temperature;BMP_pressure;BME280_temperature;BME280_humidity;BME280_pressure;Samples;Min_cycle;Max_cycle;Signal;HPM_P1;HPM_P2
2024/01/03 16:29:55;;;;;;;;;5.75;5.00;;;;;;;;5106340;27;13393;-75
2024/01/03 16:32:23;;;;;;;;;6.50;6.50;;;;;;;;5085369;28;11422;-70
2024/01/03 16:34:48;;;;;;;;;7.50;5.75;;;;;;;;5087950;28;9512;-69
2024/01/03 16:37:14;;;;;;;;;11.00;7.50;;;;;;;;5087797;28;11410;-69
2024/01/03 16:39:40;;;;;;;;;6.00;4.25;;;;;;;;5087642;28;8925;-71
2024/01/03 16:42:07;;;;;;;;;4.25;3.00;;;;;;;;5086611;28;8977;-71
2024/01/03 16:44:33;;;;;;;;;4.25;4.25;;;;;;;;5086184;28;11029;-75
2024/01/03 16:46:58;;;;;;;;;5.00;4.00;;;;;;;;5087285;28;11188;-71
2024/01/03 16:49:23;;;;;;;;;4.00;4.00;;;;;;;;5088670;28;8844;-71
2024/01/03 16:51:52;;;;;;;;;7.75;6.25;;;;;;;;5087217;28;8811;-69
2024/01/03 16:54:17;;;;;;;;;6.75;4.00;;;;;;;;5086613;28;8902;-72
2024/01/03 16:56:44;;;;;;;;;4.00;3.25;;;;;;;;5085625;28;11928;-71
2024/01/03 16:59:13;;;;;;;;;5.50;4.00;;;;;;;;5089142;28;8798;-71
2024/01/03 17:01:38;;;;;;;;;1.75;1.75;;;;;;;;5087006;28;10806;-71
2024/01/03 17:04:03;;;;;;;;;7.50;5.50;;;;;;;;5086415;28;10762;-71
2024/01/03 17:06:29;;;;;;;;;7.25;6.00;;;;;;;;5087357;28;8895;-71
2024/01/03 17:08:55;;;;;;;;;6.75;3.50;;;;;;;;5087422;28;8911;-72
2024/01/03 17:11:23;;;;;;;;;11.50;6.25;;;;;;;;5087006;28;9660;-71
2024/01/03 17:13:48;;;;;;;;;6.00;5.00;;;;;;;;5086114;28;11550;-71
2024/01/03 17:16:14;;;;;;;;;6.50;4.75;;;;;;;;5086968;28;10687;-70
2024/01/03 17:18:39;;;;;;;;;10.75;8.00;;;;;;;;5087267;28;8798;-70
2024/01/03 17:21:10;;;;;;;;;8.00;6.00;;;;;;;;5084898;28;8814;-72
2024/01/03 17:23:36;;;;;;;;;11.75;8.25;;;;;;;;5084576;28;8949;-71
2024/01/03 17:26:01;;;;;;;;;4.00;3.00;;;;;;;;5086947;28;11202;-71
2024/01/03 17:28:26;;;;;;;;;7.50;7.25;;;;;;;;5087011;28;8846;-72
2024/01/03 17:30:51;;;;;;;;;9.00;6.50;;;;;;;;5086964;28;8924;-71
2024/01/03 17:33:17;;;;;;;;;15.25;13.00;;;;;;;;5045171;27;9810;-72
2024/01/03 17:35:42;;;;;;;;;11.00;8.25;;;;;;;;5059609;28;9889;-72
2024/01/03 17:38:07;;;;;;;;;9.00;8.00;;;;;;;;5046227;28;9579;-71
2024/01/03 17:40:33;;;;;;;;;20.25;17.75;;;;;;;;5036324;28;8913;-72
2024/01/03 17:42:58;;;;;;;;;15.50;14.00;;;;;;;;5030981;28;8812;-72
2024/01/03 17:45:23;;;;;;;;;18.75;15.75;;;;;;;;5028902;28;8816;-71
2024/01/03 17:47:48;;;;;;;;;12.00;11.75;;;;;;;;5031551;28;8940;-71
2024/01/03 17:50:15;;;;;;;;;20.50;15.00;;;;;;;;5032964;28;8820;-72
2024/01/03 17:52:40;;;;;;;;;11.00;9.50;;;;;;;;5030812;28;8786;-73
2024/01/03 17:55:05;;;;;;;;;15.50;13.75;;;;;;;;5031018;28;10515;-73
2024/01/03 17:57:33;;;;;;;;;9.25;7.00;;;;;;;;5029532;28;8876;-71
2024/01/03 17:59:58;;;;;;;;;13.25;10.50;;;;;;;;5031017;28;8814;-72
2024/01/03 18:02:23;;;;;;;;;28.00;25.00;;;;;;;;5027470;28;10630;-72
2024/01/03 18:04:49;;;;;;;;;22.00;17.00;;;;;;;;5030136;28;9825;-72
2024/01/03 18:07:14;;;;;;;;;12.75;11.50;;;;;;;;5026387;28;8942;-76
2024/01/03 18:09:39;;;;;;;;;8.25;5.00;;;;;;;;5009943;28;9597;-74
2024/01/03 18:12:05;;;;;;;;;5.25;4.00;;;;;;;;5011316;28;8820;-76
2024/01/03 18:14:35;;;;;;;;;4.25;4.25;;;;;;;;5011494;28;8876;-71
2024/01/03 18:17:07;;;;;;;;;1.75;1.75;;;;;;;;5034008;22;9749;-70
2024/01/03 18:19:33;;;;;;;;;1.75;1.75;;;;;;;;5012487;28;10556;-72
2024/01/03 18:21:58;;;;;;;;;4.75;1.25;;;;;;;;5012350;28;10394;-69
2024/01/03 18:24:29;;;;;;;;;1.50;1.50;;;;;;;;5027284;28;8939;-69
2024/01/03 18:26:55;;;;;;;;;4.00;3.00;;;;;;;;5012491;28;8800;-70
2024/01/03 18:29:20;;;;;;;;;2.25;1.25;;;;;;;;5012071;28;10694;-69
2024/01/03 18:31:45;;;;;;;;;8.25;6.25;;;;;;;;5011882;28;8772;-69
2024/01/03 18:34:10;;;;;;;;;12.00;7.50;;;;;;;;5011744;28;8788;-69
2024/01/03 18:36:36;;;;;;;;;4.00;1.50;;;;;;;;5010285;28;8983;-69
2024/01/03 18:39:02;;;;;;;;;7.50;6.00;;;;;;;;5011680;28;9053;-69
2024/01/03 18:41:28;;;;;;;;;4.25;2.00;;;;;;;;5011859;28;8780;-69
2024/01/03 18:43:56;;;;;;;;;3.25;3.25;;;;;;;;5011860;28;8811;-69
2024/01/03 18:46:22;;;;;;;;;2.00;2.00;;;;;;;;5011634;28;10713;-69
2024/01/03 18:48:47;;;;;;;;;5.50;5.00;;;;;;;;5012666;28;10657;-69
2024/01/03 18:51:15;;;;;;;;;6.75;4.00;;;;;;;;5010887;28;8780;-68
2024/01/03 18:53:40;;;;;;;;;9.00;7.50;;;;;;;;5011400;28;8792;-68
2024/01/03 18:56:06;;;;;;;;;7.00;6.25;;;;;;;;5010221;28;10766;-68
2024/01/03 18:58:31;;;;;;;;;8.00;6.00;;;;;;;;5009970;28;8820;-70
2024/01/03 19:00:58;;;;;;;;;5.50;5.00;;;;;;;;5026592;28;8792;-78
2024/01/03 19:03:24;;;;;;;;;4.75;4.50;;;;;;;;5010089;28;8800;-78
2024/01/03 19:05:49;;;;;;;;;4.50;3.00;;;;;;;;5011331;28;10620;-78
2024/01/03 19:08:19;;;;;;;;;2.75;2.75;;;;;;;;5011519;28;8800;-85
2024/01/03 19:10:46;;;;;;;;;6.25;4.00;;;;;;;;5011636;28;8772;-77
2024/01/03 19:13:11;;;;;;;;;6.75;3.50;;;;;;;;5011424;28;10638;-82
2024/01/03 19:15:36;;;;;;;;;4.00;4.00;;;;;;;;5011220;28;10776;-81
2024/01/03 19:18:04;;;;;;;;;6.00;4.00;;;;;;;;5011615;28;8949;-77
2024/01/03 19:20:29;;;;;;;;;4.25;4.25;;;;;;;;5011308;28;8815;-78
2024/01/03 19:22:55;;;;;;;;;5.50;5.00;;;;;;;;5010124;28;10712;-78
2024/01/03 19:25:22;;;;;;;;;5.00;4.00;;;;;;;;5026086;28;8808;-80
2024/01/03 19:27:48;;;;;;;;;4.25;4.00;;;;;;;;5026157;28;8835;-74
2024/01/03 19:30:13;;;;;;;;;7.00;7.00;;;;;;;;5011001;28;10564;-73
2024/01/03 19:35:08;;;;;;;;;6.00;6.00;;;;;;;;5105746;27;14196;-72
2024/01/03 19:37:39;;;;;;;;;7.00;4.00;;;;;;;;5107687;28;10598;-81
2024/01/03 19:40:05;;;;;;;;;4.00;3.00;;;;;;;;5108059;28;10654;-85
2024/01/03 19:42:30;;;;;;;;;7.50;4.50;;;;;;;;5108171;28;10606;-78
2024/01/03 19:45:02;;;;;;;;;4.75;3.00;;;;;;;;5107723;28;8800;-76
2024/01/03 19:47:28;;;;;;;;;6.50;4.00;;;;;;;;5106263;28;8811;-75
2024/01/03 19:49:53;;;;;;;;;6.25;4.25;;;;;;;;5107384;28;11946;-74
2024/01/03 19:52:26;;;;;;;;;5.00;4.00;;;;;;;;5106287;28;10511;-75
2024/01/03 19:54:56;;;;;;;;;8.00;6.00;;;;;;;;5097309;28;8848;-70
2024/01/03 19:57:21;;;;;;;;;3.75;3.75;;;;;;;;5087142;28;10515;-77
2024/01/03 19:59:47;;;;;;;;;5.00;5.00;;;;;;;;5086710;28;11207;-73
2024/01/03 20:02:12;;;;;;;;;3.00;3.00;;;;;;;;5086781;28;8797;-74
2024/01/03 20:04:41;;;;;;;;;3.50;3.50;;;;;;;;5088342;28;8802;-72
2024/01/03 20:07:07;;;;;;;;;2.75;2.75;;;;;;;;5086776;28;8806;-76
2024/01/03 20:09:35;;;;;;;;;7.50;4.75;;;;;;;;5089788;28;10348;-77
2024/01/03 20:12:01;;;;;;;;;7.00;4.00;;;;;;;;5104943;28;9835;-75
2024/01/03 20:14:30;;;;;;;;;4.00;4.00;;;;;;;;5106162;28;10576;-71
2024/01/03 20:16:55;;;;;;;;;7.75;5.00;;;;;;;;5106292;28;8796;-73
2024/01/03 20:19:20;;;;;;;;;7.00;4.50;;;;;;;;5106321;28;10559;-72
2024/01/03 20:21:46;;;;;;;;;8.75;7.75;;;;;;;;5106284;28;8776;-71
2024/01/03 20:24:14;;;;;;;;;8.00;3.00;;;;;;;;5108825;28;8793;-71
2024/01/03 20:26:41;;;;;;;;;8.25;3.50;;;;;;;;5106677;28;8803;-73
2024/01/03 20:29:07;;;;;;;;;4.00;4.00;;;;;;;;5106194;28;10607;-73
2024/01/03 20:31:32;;;;;;;;;3.00;3.00;;;;;;;;5104924;28;10780;-72
2024/01/03 20:33:58;;;;;;;;;3.00;3.00;;;;;;;;5106004;28;8840;-72
2024/01/03 20:36:23;;;;;;;;;8.75;5.50;;;;;;;;5105905;28;8806;-73
2024/01/03 20:38:50;;;;;;;;;7.00;4.00;;;;;;;;5107725;28;8845;-72
2024/01/03 20:41:20;;;;;;;;;5.00;4.50;;;;;;;;5106589;28;8814;-73
2024/01/03 20:43:45;;;;;;;;;6.00;4.00;;;;;;;;5106559;28;10820;-73
2024/01/03 20:46:11;;;;;;;;;9.00;4.50;;;;;;;;5092009;28;10650;-73
2024/01/03 20:48:37;;;;;;;;;6.00;4.50;;;;;;;;5090444;28;9561;-73
2024/01/03 20:51:03;;;;;;;;;7.75;5.50;;;;;;;;5090955;28;8939;-71
2024/01/03 20:53:30;;;;;;;;;8.00;4.00;;;;;;;;5091451;28;8928;-71
2024/01/03 20:55:55;;;;;;;;;8.75;7.25;;;;;;;;5090816;28;10572;-74
2024/01/03 20:58:21;;;;;;;;;10.50;6.00;;;;;;;;5092035;28;10544;-74
2024/01/03 21:00:46;;;;;;;;;5.50;4.00;;;;;;;;5090563;28;8803;-75
2024/01/03 21:03:11;;;;;;;;;4.00;4.00;;;;;;;;5091640;28;8816;-75
2024/01/03 21:05:37;;;;;;;;;4.00;4.00;;;;;;;;5089748;28;8784;-73
2024/01/03 21:08:02;;;;;;;;;8.00;4.00;;;;;;;;5093519;28;8820;-73
2024/01/03 21:10:30;;;;;;;;;6.50;4.75;;;;;;;;5094087;28;8826;-74
2024/01/03 21:12:58;;;;;;;;;5.75;4.00;;;;;;;;5091559;28;8912;-73
2024/01/03 21:15:23;;;;;;;;;5.50;4.00;;;;;;;;5091028;28;10772;-72
2024/01/03 21:17:48;;;;;;;;;4.25;4.25;;;;;;;;5091189;28;10627;-73
2024/01/03 21:20:16;;;;;;;;;4.00;4.00;;;;;;;;5091394;28;8887;-73
2024/01/03 21:22:42;;;;;;;;;6.50;4.00;;;;;;;;5091230;28;8796;-73
2024/01/03 21:25:10;;;;;;;;;5.75;4.00;;;;;;;;5089355;28;10934;-73
2024/01/03 21:27:41;;;;;;;;;9.25;6.50;;;;;;;;5091141;28;8886;-73
2024/01/03 21:30:06;;;;;;;;;7.50;7.00;;;;;;;;5090859;28;11176;-71
2024/01/03 21:32:32;;;;;;;;;8.00;6.00;;;;;;;;5090552;28;11095;-73
